createdAt,value
2019-03-09T00:00:41.145Z,85.19
2019-03-09T00:05:59.677Z,85.29
2019-03-09T00:11:18.277Z,83.77
2019-03-09T00:16:37.181Z,83.26
2019-03-09T00:21:55.784Z,82.97
2019-03-09T00:27:15.887Z,82.15
2019-03-09T00:32:34.536Z,81.83
2019-03-09T00:37:52.998Z,80.78
2019-03-09T00:43:11.615Z,81.95
2019-03-09T00:48:30.148Z,84.50
2019-03-09T00:53:48.696Z,86.90
2019-03-09T00:59:07.226Z,88.85
2019-03-09T01:04:25.885Z,91.34
2019-03-09T01:09:44.512Z,92.11
2019-03-09T01:15:03.228Z,92.17
2019-03-09T01:20:21.832Z,93.14
2019-03-09T01:25:40.393Z,93.41
2019-03-09T01:30:59.015Z,95.16
2019-03-09T01:36:17.473Z,94.55
2019-03-09T01:41:36.101Z,95.24
2019-03-09T01:46:54.713Z,95.37
2019-03-09T01:52:13.274Z,95.24
2019-03-09T01:57:31.898Z,95.82
2019-03-09T02:02:50.510Z,96.03
2019-03-09T02:08:09.352Z,96.67
2019-03-09T02:13:29.416Z,97.67
2019-03-09T02:18:48.054Z,98.00
2019-03-09T02:24:06.588Z,98.16
2019-03-09T02:29:25.141Z,97.82
2019-03-09T02:34:43.768Z,98.40
2019-03-09T02:40:03.956Z,97.67
2019-03-09T02:45:25.037Z,98.41
2019-03-09T02:50:51.333Z,98.77
2019-03-09T02:56:11.768Z,99.49
2019-03-09T03:01:32.036Z,99.68
2019-03-09T03:06:51.116Z,100.00
2019-03-09T03:12:15.137Z,100.00
2019-03-09T03:17:33.787Z,100.00
2019-03-09T03:22:52.378Z,100.00
2019-03-09T03:28:11.311Z,100.00
2019-03-09T03:33:30.010Z,100.00
2019-03-09T03:38:48.573Z,100.00
2019-03-09T03:44:07.436Z,100.00
2019-03-09T03:49:26.423Z,100.00
2019-03-09T03:54:44.976Z,100.00
2019-03-09T04:00:05.513Z,100.00
2019-03-09T04:05:25.594Z,100.00
2019-03-09T04:10:44.344Z,100.00
2019-03-09T04:16:02.963Z,100.00
2019-03-09T04:21:21.465Z,100.00
2019-03-09T04:26:40.361Z,100.00
2019-03-09T04:31:59.013Z,100.00
2019-03-09T04:37:17.637Z,100.00
2019-03-09T04:42:36.200Z,100.00
2019-03-09T04:47:55.033Z,100.00
2019-03-09T04:53:13.939Z,100.00
2019-03-09T04:58:32.511Z,100.00
2019-03-09T05:04:19.962Z,100.00
2019-03-09T05:09:59.723Z,100.00
2019-03-09T05:15:18.391Z,100.00
2019-03-09T05:20:36.960Z,100.00
2019-03-09T05:25:55.523Z,100.00
2019-03-09T05:31:14.140Z,100.00
2019-03-09T05:36:32.705Z,100.00
2019-03-09T05:41:51.317Z,100.00
2019-03-09T05:47:09.961Z,100.00
2019-03-09T05:52:31.620Z,100.00
2019-03-09T05:57:50.263Z,100.00
2019-03-09T06:03:08.817Z,100.00
2019-03-09T06:08:28.273Z,100.00
2019-03-09T06:13:47.165Z,100.00
2019-03-09T06:19:05.824Z,100.00
2019-03-09T06:24:24.288Z,99.14
2019-03-09T06:29:42.900Z,97.53
2019-03-09T06:35:01.837Z,97.60
2019-03-09T06:40:20.495Z,99.03
2019-03-09T06:45:39.441Z,99.43
2019-03-09T06:50:58.046Z,98.10
2019-03-09T06:56:16.687Z,97.99
2019-03-09T07:01:35.288Z,97.75
2019-03-09T07:06:53.908Z,97.50
2019-03-09T07:12:13.193Z,96.93
2019-03-09T07:17:31.847Z,96.44
2019-03-09T07:22:50.629Z,96.59
2019-03-09T07:28:14.650Z,96.37
2019-03-09T07:33:33.286Z,96.33
2019-03-09T07:38:52.049Z,95.97
2019-03-09T07:44:10.605Z,95.21
2019-03-09T07:49:29.179Z,95.07
2019-03-09T07:54:47.868Z,95.34
2019-03-09T08:00:18.009Z,94.74
2019-03-09T08:05:36.624Z,94.93
2019-03-09T08:10:55.180Z,93.68
2019-03-09T08:16:13.765Z,94.12
2019-03-09T08:21:32.339Z,93.75
2019-03-09T08:26:50.821Z,93.43
2019-03-09T08:32:09.379Z,92.38
2019-03-09T08:37:28.011Z,91.83
2019-03-09T08:42:46.714Z,92.81
2019-03-09T08:48:05.340Z,92.37
2019-03-09T08:53:28.638Z,92.88
2019-03-09T08:58:48.479Z,92.42
2019-03-09T09:04:07.172Z,92.19
2019-03-09T09:09:25.818Z,91.86
2019-03-09T09:14:44.427Z,91.37
2019-03-09T09:20:03.029Z,90.48
2019-03-09T09:25:21.585Z,89.94
2019-03-09T09:30:40.216Z,88.88
2019-03-09T09:35:58.801Z,88.98
2019-03-09T09:41:18.021Z,88.41
2019-03-09T09:46:36.685Z,87.60
2019-03-09T09:51:55.298Z,87.01
2019-03-09T09:57:15.595Z,86.27
2019-03-09T10:02:34.264Z,84.95
2019-03-09T10:07:53.349Z,85.49
2019-03-09T10:13:12.143Z,85.53
2019-03-09T10:18:30.745Z,84.39
2019-03-09T10:23:49.391Z,84.47
2019-03-09T10:29:08.012Z,84.64
2019-03-09T10:34:26.617Z,84.57
2019-03-09T10:39:45.314Z,85.21
2019-03-09T10:45:05.181Z,84.57
2019-03-09T10:50:26.073Z,84.32
2019-03-09T10:55:44.805Z,83.83
2019-03-09T11:01:07.893Z,83.35
2019-03-09T11:06:29.367Z,81.64
2019-03-09T11:11:48.135Z,81.37
2019-03-09T11:17:09.590Z,80.77
2019-03-09T11:22:28.187Z,79.49
2019-03-09T11:27:47.134Z,78.45
2019-03-09T11:33:06.569Z,76.87
2019-03-09T11:38:29.331Z,77.20
2019-03-09T11:43:47.868Z,76.92
2019-03-09T11:49:06.429Z,77.71
2019-03-09T11:54:25.000Z,77.83
2019-03-09T11:59:43.615Z,76.15
2019-03-09T12:05:02.226Z,74.49
2019-03-09T12:10:20.846Z,75.41
2019-03-09T12:15:39.377Z,73.74
2019-03-09T12:20:57.948Z,72.36
2019-03-09T12:26:16.560Z,71.18
2019-03-09T12:31:35.044Z,71.60
2019-03-09T12:36:53.657Z,72.55
2019-03-09T12:42:13.399Z,70.45
2019-03-09T12:47:31.864Z,70.58
2019-03-09T12:52:53.347Z,68.82
2019-03-09T12:58:11.906Z,66.95
2019-03-09T13:03:30.641Z,67.38
2019-03-09T13:08:49.176Z,68.93
2019-03-09T13:14:07.840Z,68.15
2019-03-09T13:19:26.318Z,66.22
2019-03-09T13:24:44.869Z,64.82
2019-03-09T13:30:05.252Z,65.13
2019-03-09T13:35:23.868Z,65.40
2019-03-09T13:40:42.475Z,66.54
2019-03-09T13:46:01.351Z,66.87
2019-03-09T13:51:21.367Z,67.16
2019-03-09T13:56:39.888Z,72.58
2019-03-09T14:01:59.287Z,82.58
2019-03-09T14:07:17.857Z,85.91
2019-03-09T14:12:36.517Z,92.42
2019-03-09T14:17:55.114Z,93.66
2019-03-09T14:23:13.735Z,92.10
2019-03-09T14:28:32.289Z,90.36
2019-03-09T14:33:50.940Z,87.73
2019-03-09T14:39:11.677Z,88.40
2019-03-09T14:44:29.851Z,89.60
2019-03-09T14:49:48.468Z,90.07
2019-03-09T14:55:10.627Z,90.11
2019-03-09T15:00:30.874Z,91.02
2019-03-09T15:05:49.611Z,89.25
2019-03-09T15:11:08.186Z,87.84
2019-03-09T15:16:26.789Z,87.68
2019-03-09T15:21:45.687Z,86.20
2019-03-09T15:27:04.315Z,84.61
2019-03-09T15:32:22.917Z,85.42
2019-03-09T15:37:43.391Z,93.13
2019-03-09T15:43:28.628Z,93.13
2019-03-09T15:48:47.270Z,94.53
2019-03-09T15:54:05.900Z,93.42
2019-03-09T15:59:24.451Z,88.65
2019-03-09T16:04:43.176Z,88.45
2019-03-09T16:10:05.926Z,86.68
2019-03-09T16:15:24.520Z,84.42
2019-03-09T16:20:43.098Z,79.73
2019-03-09T16:26:01.586Z,80.77
2019-03-09T16:31:20.228Z,82.06
2019-03-09T16:36:38.717Z,88.10
2019-03-09T16:41:57.281Z,92.87
2019-03-09T16:47:15.826Z,90.60
2019-03-09T16:52:34.405Z,91.02
2019-03-09T16:57:53.161Z,89.47
2019-03-09T17:03:11.736Z,87.74
2019-03-09T17:08:30.354Z,87.74
2019-03-09T17:13:49.015Z,86.33
2019-03-09T17:19:07.689Z,85.12
2019-03-09T17:24:26.201Z,84.55
2019-03-09T17:29:44.722Z,82.18
2019-03-09T17:35:03.347Z,82.18
2019-03-09T17:40:22.067Z,82.30
2019-03-09T17:45:40.834Z,82.47
2019-03-09T17:50:59.557Z,80.39
2019-03-09T17:56:18.168Z,80.45
2019-03-09T18:01:36.811Z,80.89
2019-03-09T18:06:55.356Z,80.59
2019-03-09T18:12:13.905Z,80.40
2019-03-09T18:17:32.444Z,80.92
2019-03-09T18:22:51.185Z,80.25
2019-03-09T18:28:09.957Z,79.17
2019-03-09T18:33:28.578Z,80.43
2019-03-09T18:38:48.756Z,80.69
2019-03-09T18:44:07.429Z,81.16
2019-03-09T18:49:26.083Z,81.74
2019-03-09T18:54:44.934Z,81.57
2019-03-09T19:00:05.111Z,81.53
2019-03-09T19:05:23.727Z,82.42
2019-03-09T19:10:42.340Z,82.14
2019-03-09T19:16:01.522Z,82.01
2019-03-09T19:21:20.144Z,82.38
2019-03-09T19:26:38.695Z,81.30
2019-03-09T19:31:57.380Z,82.66
2019-03-09T19:37:16.373Z,82.49
2019-03-09T19:42:34.998Z,82.20
2019-03-09T19:47:53.941Z,82.05
2019-03-09T19:53:12.550Z,81.75
2019-03-09T19:58:32.000Z,82.07
2019-03-09T20:03:50.598Z,81.71
2019-03-09T20:09:09.255Z,81.54
2019-03-09T20:14:27.929Z,81.21
2019-03-09T20:19:46.481Z,81.49
2019-03-09T20:25:05.641Z,81.83
2019-03-09T20:30:24.243Z,82.02
2019-03-09T20:35:42.811Z,81.71
2019-03-09T20:41:01.368Z,81.40
2019-03-09T20:46:19.987Z,81.51
2019-03-09T20:51:38.626Z,81.13
2019-03-09T20:56:57.321Z,80.57
2019-03-09T21:02:15.893Z,80.29
2019-03-09T21:07:34.553Z,79.62
2019-03-09T21:13:01.503Z,80.42
2019-03-09T21:18:20.066Z,80.47
2019-03-09T21:23:41.193Z,80.93
2019-03-09T21:29:00.013Z,79.88
2019-03-09T21:34:21.806Z,79.18
2019-03-09T21:39:40.307Z,78.14
2019-03-09T21:44:58.859Z,76.60
2019-03-09T21:50:18.163Z,75.60
2019-03-09T21:55:36.992Z,75.04
2019-03-09T22:00:55.495Z,74.14
2019-03-09T22:06:16.068Z,73.31
2019-03-09T22:11:34.565Z,72.88
2019-03-09T22:16:56.620Z,72.48
2019-03-09T22:22:13.543Z,71.01
2019-03-09T22:27:32.094Z,72.57
2019-03-09T22:32:50.719Z,72.83
2019-03-09T22:38:09.701Z,73.22
2019-03-09T22:43:28.334Z,73.30
2019-03-09T22:48:46.907Z,73.32
2019-03-09T22:54:05.995Z,73.22
2019-03-09T22:59:24.614Z,73.76
2019-03-09T23:04:43.358Z,72.89
2019-03-09T23:10:01.884Z,71.83
2019-03-09T23:15:20.834Z,72.66
2019-03-09T23:20:39.588Z,73.16
2019-03-09T23:25:58.177Z,73.38
2019-03-09T23:31:16.924Z,73.51
2019-03-09T23:36:35.567Z,74.22
2019-03-09T23:41:54.131Z,74.90
2019-03-09T23:47:12.755Z,77.75
2019-03-09T23:52:31.410Z,77.75
2019-03-09T23:57:50.243Z,78.89
